Time;durP1;ratioP1;P1;durP2;ratioP2;P2;SDS_P1;SDS_P2;PMS_P1;PMS_P2;Temp;Humidity;BMP_temperature;BMP_pressure;BME280_temperature;BME280_humidity;BME280_pressure;Samples;Min_cycle;Max_cycle;Signal;HPM_P1;HPM_P2
2023/01/06 00:00:10;;;;;;;5.10;3.80;;;;;;;10.63;71.39;100181.63;4933680;29;20173;-84
2023/01/06 00:02:35;;;;;;;5.35;3.53;;;;;;;10.52;71.51;100184.00;4933623;29;20219;-84
2023/01/06 00:05:01;;;;;;;7.23;3.87;;;;;;;10.38;71.41;100182.97;4935271;29;20620;-84
2023/01/06 00:07:26;;;;;;;7.20;5.07;;;;;;;10.26;71.95;100178.34;4934747;29;20232;-84
2023/01/06 00:09:52;;;;;;;13.93;3.73;;;;;;;10.22;72.00;100182.06;4932479;29;20190;-84
2023/01/06 00:12:17;;;;;;;7.43;3.90;;;;;;;10.19;72.30;100177.81;4933355;29;20186;-84
2023/01/06 00:14:43;;;;;;;4.67;3.70;;;;;;;10.18;72.05;100175.28;4933333;29;20181;-84
2023/01/06 00:17:09;;;;;;;8.57;4.33;;;;;;;10.17;72.03;100173.56;4933231;29;20182;-84
2023/01/06 00:19:35;;;;;;;7.32;4.70;;;;;;;10.14;72.03;100171.09;4933472;29;20205;-84
2023/01/06 00:22:00;;;;;;;10.17;4.33;;;;;;;10.08;72.09;100171.44;4932285;28;20174;-84
2023/01/06 00:24:26;;;;;;;5.90;3.87;;;;;;;10.04;72.17;100169.88;4932992;29;20470;-84
2023/01/06 00:26:51;;;;;;;4.37;3.87;;;;;;;10.02;72.17;100167.38;4933984;29;20202;-84
2023/01/06 00:29:16;;;;;;;7.07;4.43;;;;;;;10.00;72.10;100161.34;4931810;29;20335;-84
2023/01/06 00:31:42;;;;;;;4.20;3.87;;;;;;;9.98;72.26;100174.53;4932994;29;20273;-84
2023/01/06 00:34:09;;;;;;;5.07;4.13;;;;;;;9.89;72.18;100169.78;4931850;29;20174;-84
2023/01/06 00:36:34;;;;;;;5.15;3.95;;;;;;;9.84;72.41;100166.53;4932172;29;20197;-84
2023/01/06 00:39:01;;;;;;;5.10;4.50;;;;;;;9.78;72.48;100156.38;4933595;29;20787;-83
2023/01/06 00:44:10;;;;;;;4.57;3.50;;;;;;;9.72;72.70;100167.16;4932068;29;20214;-84
2023/01/06 00:46:36;;;;;;;6.60;3.57;;;;;;;9.65;72.60;100161.38;4934621;29;20304;-84
2023/01/06 00:49:02;;;;;;;4.60;3.50;;;;;;;9.56;72.76;100177.59;4935321;29;20288;-84
2023/01/06 00:51:28;;;;;;;4.78;3.40;;;;;;;9.46;73.07;100171.94;4935375;29;20186;-84
2023/01/06 00:53:54;;;;;;;3.20;2.30;;;;;;;9.41;73.32;100166.09;4935739;29;20185;-84
2023/01/06 00:56:19;;;;;;;4.47;3.33;;;;;;;9.34;73.54;100175.16;4935831;29;20638;-82
2023/01/06 00:58:45;;;;;;;3.93;3.53;;;;;;;9.28;73.70;100167.63;4937822;29;20233;-84
2023/01/06 01:01:11;;;;;;;3.87;3.53;;;;;;;9.29;73.73;100170.19;4937049;29;20229;-84
2023/01/06 01:03:38;;;;;;;4.60;3.67;;;;;;;9.28;73.54;100163.22;4937030;29;20809;-84
2023/01/06 01:06:06;;;;;;;3.33;2.75;;;;;;;9.27;73.53;100165.94;4934767;29;20457;-84
2023/01/06 01:08:33;;;;;;;3.75;3.33;;;;;;;9.22;73.73;100160.91;4937083;29;20581;-84
2023/01/06 01:11:06;;;;;;;5.77;4.43;;;;;;;9.17;73.66;100169.91;4936525;29;20474;-83
2023/01/06 01:13:32;;;;;;;3.83;2.90;;;;;;;9.13;73.67;100170.97;4935739;29;20512;-84
2023/01/06 01:16:08;;;;;;;3.50;2.80;;;;;;;9.08;73.87;100166.81;4935139;29;20276;-84
2023/01/06 01:18:34;;;;;;;3.78;2.95;;;;;;;9.04;73.87;100165.25;4935263;29;20452;-84
2023/01/06 01:21:00;;;;;;;4.00;3.60;;;;;;;9.04;73.98;100172.28;4934846;29;20170;-83
2023/01/06 01:23:25;;;;;;;5.33;4.20;;;;;;;9.02;73.99;100175.00;4934970;29;20433;-84
2023/01/06 01:25:57;;;;;;;4.50;3.43;;;;;;;9.01;73.87;100169.81;4936066;29;20477;-83
2023/01/06 01:28:22;;;;;;;5.63;4.05;;;;;;;8.98;74.01;100170.81;4933618;29;20710;-85
2023/01/06 01:30:48;;;;;;;3.47;3.17;;;;;;;8.96;73.90;100172.66;4931744;29;20178;-83
2023/01/06 01:33:13;;;;;;;5.70;3.37;;;;;;;8.93;73.92;100175.41;4932323;29;20205;-84
2023/01/06 01:35:39;;;;;;;5.73;3.63;;;;;;;8.89;73.99;100173.88;4933436;29;20236;-83
2023/01/06 01:38:04;;;;;;;5.37;3.57;;;;;;;8.85;74.10;100181.00;4932013;29;20182;-83
2023/01/06 01:40:30;;;;;;;3.67;3.37;;;;;;;8.85;73.95;100181.00;4932299;29;20186;-83
2023/01/06 01:42:56;;;;;;;3.93;3.50;;;;;;;8.84;73.91;100176.72;4932855;29;20209;-83
2023/01/06 01:45:27;;;;;;;3.72;2.70;;;;;;;8.83;74.01;100176.75;4932371;29;20625;-83
2023/01/06 01:47:59;;;;;;;2.58;2.38;;;;;;;8.79;73.84;100176.06;4947047;29;20269;-83
2023/01/06 01:50:36;;;;;;;6.63;3.85;;;;;;;8.76;73.95;100173.59;4932581;29;20658;-84
2023/01/06 01:53:12;;;;;;;3.75;2.80;;;;;;;8.76;74.00;100170.13;4931003;29;20174;-83
2023/01/06 01:55:38;;;;;;;3.97;2.80;;;;;;;8.76;73.81;100185.84;4933328;29;20280;-83
2023/01/06 01:58:19;;;;;;;4.70;4.10;;;;;;;8.73;73.84;100186.00;4933605;29;20261;-84
2023/01/06 02:00:44;;;;;;;2.40;2.20;;;;;;;8.68;73.79;100185.38;4932770;29;20446;-83
2023/01/06 02:03:12;;;;;;;3.60;2.90;;;;;;;8.62;73.67;100183.88;4932506;29;20185;-84
2023/01/06 02:05:47;;;;;;;4.50;2.85;;;;;;;8.56;73.69;100182.41;4932387;29;20523;-83
2023/01/06 02:08:34;;;;;;;4.68;3.38;;;;;;;8.42;74.24;100187.41;4931928;29;20182;-83
2023/01/06 02:11:00;;;;;;;2.85;2.53;;;;;;;8.28;74.25;100190.59;4934977;29;20783;-83
2023/01/06 02:13:25;;;;;;;3.00;2.80;;;;;;;8.22;74.43;100190.88;4933364;29;20182;-83
2023/01/06 02:16:01;;;;;;;2.88;2.60;;;;;;;8.20;74.74;100193.56;4938285;29;20198;-84
2023/01/06 02:18:41;;;;;;;2.88;2.45;;;;;;;8.25;74.55;100189.91;4937869;29;20306;-84
2023/01/06 02:21:54;;;;;;;2.70;2.50;;;;;;;8.32;74.61;100186.94;4933058;28;20194;-83
2023/01/06 02:25:13;;;;;;;3.60;2.95;;;;;;;8.42;74.52;100171.69;4942434;29;20714;-83
2023/01/06 02:28:06;;;;;;;2.75;2.55;;;;;;;8.54;74.31;100180.78;4902306;29;20872;-83
2023/01/06 02:30:55;;;;;;;3.13;2.60;;;;;;;8.62;74.15;100173.41;4931363;29;20204;-83
2023/01/06 02:33:35;;;;;;;3.55;3.03;;;;;;;8.70;74.35;100167.81;4930758;29;20277;-83
2023/01/06 02:36:03;;;;;;;3.10;2.80;;;;;;;8.75;74.30;100169.28;4930499;29;20206;-83
2023/01/06 02:38:40;;;;;;;4.03;3.55;;;;;;;8.81;74.26;100165.53;4931289;29;20718;-83
2023/01/06 02:41:30;;;;;;;3.60;2.53;;;;;;;8.85;74.38;100165.28;4930270;29;20730;-83
2023/01/06 02:44:16;;;;;;;3.78;3.00;;;;;;;8.91;74.49;100163.31;4932399;29;20256;-84
2023/01/06 02:46:54;;;;;;;2.95;2.10;;;;;;;8.92;74.25;100159.78;4936231;29;20248;-83
2023/01/06 02:49:40;;;;;;;4.13;2.40;;;;;;;8.88;74.46;100159.06;4934259;29;20209;-83
2023/01/06 02:52:15;;;;;;;2.42;2.20;;;;;;;8.82;74.50;100157.59;4931035;29;20270;-84
2023/01/06 02:55:02;;;;;;;3.35;2.50;;;;;;;8.77;74.83;100156.94;4932399;29;20205;-84
2023/01/06 02:57:55;;;;;;;3.08;2.67;;;;;;;8.75;74.68;100153.59;4932245;29;20574;-83
2023/01/06 03:00:35;;;;;;;3.15;2.28;;;;;;;8.70;74.87;100160.81;4930604;29;20184;-84
2023/01/06 03:03:10;;;;;;;4.55;2.38;;;;;;;8.66;74.93;100153.16;4928386;29;20471;-82
2023/01/06 03:05:37;;;;;;;2.05;1.88;;;;;;;8.59;75.05;100153.44;4930871;29;20268;-84
2023/01/06 03:08:17;;;;;;;2.60;2.40;;;;;;;8.56;75.05;100142.25;4929647;29;20379;-83
2023/01/06 03:10:45;;;;;;;2.97;2.75;;;;;;;8.55;75.16;100144.03;4931326;29;20180;-83
2023/01/06 03:13:19;;;;;;;3.38;2.83;;;;;;;8.57;75.12;100138.72;4945130;29;20186;-83
2023/01/06 03:15:45;;;;;;;5.65;3.35;;;;;;;8.57;75.12;100139.56;4929589;29;20198;-83
2023/01/06 03:18:11;;;;;;;4.77;3.67;;;;;;;8.56;75.05;100135.25;4930727;29;20182;-83
2023/01/06 03:20:37;;;;;;;2.50;2.30;;;;;;;8.52;75.05;100136.31;4929953;29;20182;-83
2023/01/06 03:23:03;;;;;;;4.10;2.03;;;;;;;8.47;74.82;100135.69;4931267;29;20197;-83
2023/01/06 03:25:29;;;;;;;2.00;1.80;;;;;;;8.38;74.81;100131.69;4931216;29;20213;-83
2023/01/06 03:27:56;;;;;;;2.25;2.05;;;;;;;8.25;74.79;100134.94;4930395;29;20194;-83
2023/01/06 03:30:31;;;;;;;2.77;1.83;;;;;;;8.12;74.97;100140.72;4930050;29;20585;-83
2023/01/06 03:33:16;;;;;;;4.53;2.78;;;;;;;8.05;75.08;100135.84;4931156;29;20173;-83
2023/01/06 03:36:03;;;;;;;2.83;2.42;;;;;;;7.98;75.32;100132.66;4931697;29;20559;-84
2023/01/06 03:38:46;;;;;;;3.47;2.75;;;;;;;7.97;75.48;100144.03;4931327;29;20193;-83
2023/01/06 03:43:10;;;;;;;3.63;2.13;;;;;;;7.96;75.21;100145.78;4933535;29;20554;-83
2023/01/06 03:44:18;;;;;;;2.78;2.35;;;;;;;7.91;75.13;100147.78;4931572;29;20202;-84
2023/01/06 03:46:54;;;;;;;2.30;1.95;;;;;;;7.90;75.04;100150.44;4955890;23;20320;-81
2023/01/06 03:49:28;;;;;;;2.03;1.90;;;;;;;7.87;75.20;100150.59;4949538;28;20173;-81
2023/01/06 03:52:00;;;;;;;2.67;2.20;;;;;;;7.87;75.18;100153.19;4966982;28;20243;-81
2023/01/06 03:54:34;;;;;;;3.40;2.00;;;;;;;7.84;74.91;100156.81;4967924;28;20574;-81
2023/01/06 03:57:12;;;;;;;2.38;2.05;;;;;;;7.83;75.04;100156.84;4966370;28;20205;-82
2023/01/06 03:59:42;;;;;;;3.08;2.30;;;;;;;7.80;74.94;100157.84;4951870;28;20403;-82
2023/01/06 04:02:08;;;;;;;2.72;2.15;;;;;;;7.76;75.03;100157.13;4950396;28;20180;-81
2023/01/06 04:04:35;;;;;;;3.43;2.60;;;;;;;7.73;74.96;100152.03;4949781;28;20284;-81
2023/01/06 04:07:01;;;;;;;2.30;1.88;;;;;;;7.70;74.94;100146.09;4952197;28;20534;-81
2023/01/06 04:09:26;;;;;;;4.00;2.23;;;;;;;7.69;74.92;100152.22;4951868;28;20246;-81
2023/01/06 04:14:38;;;;;;;2.42;2.20;;;;;;;7.69;74.93;100154.84;4951880;29;20598;-82
2023/01/06 04:17:04;;;;;;;2.50;2.08;;;;;;;7.71;74.91;100150.41;4949883;29;20685;-81
2023/01/06 04:19:29;;;;;;;2.00;1.90;;;;;;;7.71;74.54;100164.31;4951718;28;20178;-81
2023/01/06 04:21:55;;;;;;;4.10;2.22;;;;;;;7.73;74.91;100162.50;4950732;28;20192;-81
2023/01/06 04:24:22;;;;;;;2.67;2.03;;;;;;;7.74;74.72;100155.50;4950039;28;20723;-82
2023/01/06 04:26:48;;;;;;;5.60;2.00;;;;;;;7.74;74.47;100156.34;4951144;28;20299;-81
2023/01/06 04:29:13;;;;;;;4.20;2.17;;;;;;;7.76;74.53;100157.13;4950363;29;20277;-81
2023/01/06 04:31:39;;;;;;;1.93;1.73;;;;;;;7.78;74.26;100157.06;4949339;28;20316;-81
2023/01/06 04:34:04;;;;;;;3.10;2.33;;;;;;;7.80;74.60;100160.44;4950644;28;20729;-81
2023/01/06 04:36:30;;;;;;;2.97;2.70;;;;;;;7.83;74.42;100159.47;4950495;28;20197;-81
2023/01/06 04:38:56;;;;;;;11.80;3.25;;;;;;;7.87;74.14;100158.44;4949572;28;20581;-81
2023/01/06 04:41:21;;;;;;;2.93;2.33;;;;;;;7.91;74.26;100160.84;4950535;28;20672;-82
2023/01/06 04:43:47;;;;;;;2.90;2.60;;;;;;;7.91;74.30;100149.53;4950102;28;20638;-81
2023/01/06 04:46:13;;;;;;;2.80;2.58;;;;;;;7.89;74.33;100161.84;4949775;29;20221;-82
2023/01/06 04:48:38;;;;;;;3.53;2.23;;;;;;;7.85;74.58;100155.03;4949855;29;20208;-82
2023/01/06 04:51:08;;;;;;;2.57;2.10;;;;;;;7.83;74.63;100152.50;4949349;28;20546;-81
2023/01/06 04:53:36;;;;;;;3.47;1.95;;;;;;;7.74;74.91;100153.72;4949803;29;20185;-81
2023/01/06 04:56:07;;;;;;;2.08;1.80;;;;;;;7.66;74.92;100158.44;4949355;28;20631;-82
2023/01/06 04:58:33;;;;;;;2.50;1.83;;;;;;;7.54;75.82;100157.19;4948880;29;20276;-81
2023/01/06 05:01:01;;;;;;;2.33;2.13;;;;;;;7.41;76.47;100152.56;4952038;28;20231;-83
2023/01/06 05:03:27;;;;;;;2.00;1.60;;;;;;;7.35;76.36;100152.81;4949699;29;20486;-82
2023/01/06 05:05:52;;;;;;;2.13;1.93;;;;;;;7.28;77.26;100157.44;4950469;28;20300;-82
2023/01/06 05:08:17;;;;;;;2.87;2.10;;;;;;;7.28;77.26;100153.06;4950111;29;20227;-83
2023/01/06 05:10:43;;;;;;;2.27;2.00;;;;;;;7.32;77.23;100146.81;4955872;28;20182;-82
2023/01/06 05:13:08;;;;;;;3.00;2.40;;;;;;;7.38;77.22;100145.69;4937842;29;20321;-82
2023/01/06 05:15:33;;;;;;;3.30;2.30;;;;;;;7.46;76.96;100148.00;4943214;29;20201;-81
2023/01/06 05:17:59;;;;;;;2.80;2.60;;;;;;;7.54;76.92;100140.66;4941288;28;20408;-83
2023/01/06 05:20:24;;;;;;;2.07;1.77;;;;;;;7.59;76.73;100141.31;4942045;29;20181;-83
2023/01/06 05:22:49;;;;;;;2.07;1.87;;;;;;;7.64;76.67;100138.50;4940707;29;20232;-83
2023/01/06 05:25:15;;;;;;;1.50;1.40;;;;;;;7.70;76.36;100143.47;4945773;29;20628;-82
2023/01/06 05:27:40;;;;;;;4.13;1.70;;;;;;;7.77;76.44;100142.28;4943586;28;20197;-82
2023/01/06 05:30:06;;;;;;;5.60;2.10;;;;;;;7.79;76.21;100142.22;4942414;29;20256;-82
2023/01/06 05:32:31;;;;;;;1.80;1.70;;;;;;;7.84;76.15;100142.88;4944804;28;20538;-82
2023/01/06 05:34:57;;;;;;;1.90;1.50;;;;;;;7.87;76.24;100148.81;4945630;29;20471;-82
2023/01/06 05:37:22;;;;;;;2.80;2.00;;;;;;;7.89;76.35;100143.53;4945790;29;20213;-83
2023/01/06 05:39:47;;;;;;;2.40;1.90;;;;;;;7.89;76.71;100146.16;4946197;29;20204;-82
2023/01/06 05:42:15;;;;;;;3.93;2.00;;;;;;;7.93;76.60;100139.84;4943819;29;20320;-82
2023/01/06 05:44:40;;;;;;;5.07;2.03;;;;;;;7.94;76.57;100134.56;4942942;29;20206;-82
2023/01/06 05:47:06;;;;;;;1.70;1.50;;;;;;;7.97;76.72;100144.88;4943211;28;20577;-82
2023/01/06 05:49:31;;;;;;;1.93;1.67;;;;;;;8.02;76.61;100133.34;4952361;29;20240;-82
2023/01/06 05:51:56;;;;;;;1.63;1.53;;;;;;;8.06;76.62;100133.16;4953037;28;20236;-82
2023/01/06 05:54:22;;;;;;;2.17;1.60;;;;;;;8.13;76.53;100131.97;4954027;28;20264;-83
2023/01/06 05:56:47;;;;;;;1.93;1.83;;;;;;;8.17;76.43;100141.38;4954855;29;20205;-82
2023/01/06 05:59:12;;;;;;;2.63;2.30;;;;;;;8.25;76.33;100142.78;4954391;28;20189;-82
2023/01/06 06:01:38;;;;;;;2.43;1.50;;;;;;;8.27;76.16;100128.72;4954307;28;20716;-82
2023/01/06 06:04:03;;;;;;;2.20;1.90;;;;;;;8.29;76.37;100124.28;4954315;29;20201;-82
2023/01/06 06:06:29;;;;;;;2.20;1.90;;;;;;;8.32;76.30;100121.50;4954163;29;20539;-82
2023/01/06 06:08:56;;;;;;;2.67;1.70;;;;;;;8.38;76.24;100128.22;4954601;29;20185;-82
2023/01/06 06:11:21;;;;;;;1.85;1.70;;;;;;;8.43;76.14;100128.91;4954532;28;20200;-83
2023/01/06 06:13:49;;;;;;;2.57;2.03;;;;;;;8.48;76.00;100132.16;4957101;29;20650;-82
2023/01/06 06:16:15;;;;;;;2.20;1.98;;;;;;;8.52;76.00;100130.25;4956542;29;20209;-82
2023/01/06 06:18:42;;;;;;;4.03;2.33;;;;;;;8.56;75.83;100129.16;4956356;28;20347;-82
2023/01/06 06:21:16;;;;;;;2.03;1.70;;;;;;;8.61;75.69;100141.13;4955674;29;20217;-82
2023/01/06 06:23:43;;;;;;;2.10;1.73;;;;;;;8.66;75.67;100140.06;4944483;28;20239;-82
2023/01/06 06:26:10;;;;;;;1.83;1.73;;;;;;;8.70;75.71;100139.00;4954106;29;20289;-82
2023/01/06 06:28:37;;;;;;;2.10;1.77;;;;;;;8.71;75.58;100152.00;4955372;28;20173;-82
2023/01/06 06:31:08;;;;;;;1.92;1.73;;;;;;;8.73;75.70;100151.94;4955771;29;20201;-82
2023/01/06 06:33:34;;;;;;;2.17;1.85;;;;;;;8.73;75.62;100160.66;4956614;28;20174;-82
2023/01/06 06:36:01;;;;;;;1.63;1.52;;;;;;;8.75;75.55;100153.59;4970696;28;20197;-83
2023/01/06 06:38:27;;;;;;;1.83;1.67;;;;;;;8.77;75.56;100151.72;4971543;28;20212;-82
2023/01/06 06:40:53;;;;;;;3.17;1.48;;;;;;;8.82;75.64;100154.13;4955549;29;20177;-82
2023/01/06 06:43:19;;;;;;;3.15;1.77;;;;;;;8.83;75.73;100154.06;4955801;28;20734;-83
2023/01/06 06:45:46;;;;;;;2.63;1.33;;;;;;;8.88;75.40;100145.97;4973867;28;20249;-82
2023/01/06 06:48:15;;;;;;;1.92;1.80;;;;;;;8.94;75.70;100144.81;4957399;28;20425;-82
2023/01/06 06:50:41;;;;;;;1.80;1.70;;;;;;;9.01;75.70;100152.31;4955235;28;20188;-82
2023/01/06 06:53:07;;;;;;;1.63;1.40;;;;;;;9.10;75.86;100156.28;4955139;29;20181;-82
2023/01/06 06:55:33;;;;;;;2.90;1.63;;;;;;;9.21;76.27;100161.00;4957475;29;20456;-82
2023/01/06 06:57:58;;;;;;;2.00;1.90;;;;;;;9.34;76.33;100158.59;4954660;29;20746;-82
2023/01/06 07:00:24;;;;;;;3.10;1.90;;;;;;;9.45;76.24;100156.28;4954592;28;20236;-82
2023/01/06 07:02:51;;;;;;;2.30;2.10;;;;;;;9.57;76.54;100160.09;4956308;28;20181;-82
2023/01/06 07:05:17;;;;;;;1.85;1.23;;;;;;;9.65;76.28;100158.75;4953588;29;20212;-82
2023/01/06 07:07:43;;;;;;;2.13;1.23;;;;;;;9.73;76.49;100155.75;4954556;29;20647;-82
2023/01/06 07:10:13;;;;;;;1.60;1.50;;;;;;;9.80;76.48;100162.34;4953994;29;20441;-82
2023/01/06 07:12:38;;;;;;;1.52;1.42;;;;;;;9.84;76.54;100166.53;4955705;29;20215;-83
2023/01/06 07:15:04;;;;;;;3.53;2.30;;;;;;;9.88;76.62;100172.47;4955345;28;20267;-82
2023/01/06 07:17:30;;;;;;;2.17;1.65;;;;;;;9.89;76.90;100169.78;4956122;28;20201;-83
2023/01/06 07:19:56;;;;;;;3.00;2.27;;;;;;;9.92;76.79;100171.38;4956312;29;20203;-82
2023/01/06 07:22:21;;;;;;;10.20;5.20;;;;;;;9.92;76.78;100174.00;4953631;28;20185;-82
2023/01/06 07:24:46;;;;;;;4.93;3.70;;;;;;;9.92;76.80;100168.75;4953049;28;20232;-82
2023/01/06 07:27:12;;;;;;;4.93;3.40;;;;;;;9.92;76.90;100169.59;4954165;28;20197;-82
2023/01/06 07:29:37;;;;;;;6.07;5.43;;;;;;;9.94;76.65;100180.88;4953831;28;20441;-82
2023/01/06 07:32:04;;;;;;;7.40;5.60;;;;;;;9.96;77.15;100184.28;4953375;28;20169;-82
2023/01/06 07:34:30;;;;;;;8.75;5.03;;;;;;;9.97;76.99;100185.13;4954003;28;20173;-82
2023/01/06 07:36:55;;;;;;;5.40;4.80;;;;;;;9.98;77.17;100185.03;4953896;28;20205;-82
2023/01/06 07:39:21;;;;;;;5.60;4.30;;;;;;;10.01;77.14;100183.19;4952627;28;20433;-83
2023/01/06 07:41:46;;;;;;;5.70;3.53;;;;;;;10.03;77.19;100183.97;4953187;28;20655;-82
2023/01/06 07:44:12;;;;;;;4.60;3.70;;;;;;;10.07;77.11;100194.22;4954090;28;20263;-82
2023/01/06 07:46:37;;;;;;;3.60;2.87;;;;;;;10.10;77.11;100198.44;4952340;29;20224;-82
2023/01/06 07:49:02;;;;;;;3.20;2.90;;;;;;;10.12;77.20;100200.06;4954374;28;20181;-82
2023/01/06 07:51:28;;;;;;;3.53;2.97;;;;;;;10.15;77.07;100202.53;4953519;28;20642;-82
2023/01/06 07:53:53;;;;;;;2.60;2.40;;;;;;;10.18;76.80;100201.53;4956862;28;20192;-82
2023/01/06 07:56:20;;;;;;;3.33;3.03;;;;;;;10.21;77.09;100204.00;4956217;29;20470;-83
2023/01/06 07:58:46;;;;;;;3.88;3.47;;;;;;;10.23;76.82;100196.88;4956078;28;20192;-82
2023/01/06 08:01:11;;;;;;;4.87;4.40;;;;;;;10.26;76.85;100196.72;4954751;29;20185;-82
2023/01/06 08:03:37;;;;;;;3.60;3.30;;;;;;;10.29;76.86;100204.47;4953158;28;20548;-82
2023/01/06 08:06:09;;;;;;;3.43;3.13;;;;;;;10.32;76.86;100206.94;4953232;28;20687;-82
2023/01/06 08:08:39;;;;;;;6.78;4.28;;;;;;;10.34;76.93;100199.81;4953966;28;20283;-82
2023/01/06 08:11:06;;;;;;;4.38;3.53;;;;;;;10.38;76.79;100209.22;4953496;29;20178;-81
2023/01/06 08:13:33;;;;;;;4.00;2.90;;;;;;;10.39;77.02;100203.03;4968318;28;20221;-81
2023/01/06 08:16:02;;;;;;;3.65;2.47;;;;;;;10.44;76.94;100212.47;4953731;28;20230;-82
2023/01/06 08:18:27;;;;;;;3.10;2.45;;;;;;;10.48;76.69;100212.22;4953655;28;20202;-81
2023/01/06 08:20:58;;;;;;;3.33;2.50;;;;;;;10.53;76.73;100220.72;4953823;29;20188;-81
2023/01/06 08:23:24;;;;;;;2.75;2.00;;;;;;;10.56;76.66;100224.94;4953139;28;20184;-82
2023/01/06 08:25:49;;;;;;;1.93;1.80;;;;;;;10.59;76.58;100222.16;4955436;28;20642;-82
2023/01/06 08:28:14;;;;;;;2.43;1.77;;;;;;;10.62;76.63;100224.59;4953121;28;20219;-82
2023/01/06 08:30:41;;;;;;;1.57;1.47;;;;;;;10.63;76.60;100228.91;4952032;28;20206;-83
2023/01/06 08:33:06;;;;;;;2.88;2.10;;;;;;;10.66;76.52;100218.25;4952297;28;20181;-82
2023/01/06 08:35:46;;;;;;;2.70;1.70;;;;;;;10.69;76.51;100218.06;4954056;28;20209;-82
2023/01/06 08:38:28;;;;;;;3.13;2.25;;;;;;;10.73;76.39;100219.63;4957611;28;20279;-82
2023/01/06 08:40:55;;;;;;;4.30;3.10;;;;;;;10.77;76.27;100226.38;4954721;28;20199;-82
2023/01/06 08:43:20;;;;;;;7.03;4.30;;;;;;;10.82;76.27;100218.25;4953797;28;20188;-84
2023/01/06 08:45:46;;;;;;;3.60;3.30;;;;;;;10.85;76.00;100218.97;4954169;28;20564;-82
2023/01/06 08:48:11;;;;;;;4.80;2.57;;;;;;;10.88;75.81;100212.66;4954328;28;20182;-84
2023/01/06 08:50:38;;;;;;;3.00;2.67;;;;;;;10.92;75.66;100213.34;4954225;29;20229;-82
2023/01/06 08:53:03;;;;;;;5.35;3.45;;;;;;;10.94;75.64;100228.09;4955370;28;20217;-83
2023/01/06 08:55:29;;;;;;;3.10;2.67;;;;;;;10.94;75.86;100227.28;4953680;28;20500;-82
2023/01/06 08:57:54;;;;;;;1.97;1.77;;;;;;;10.96;75.65;100230.63;4953358;28;20188;-82
2023/01/06 09:00:20;;;;;;;1.77;1.40;;;;;;;10.99;75.68;100227.84;4955175;28;20206;-86
2023/01/06 09:02:45;;;;;;;2.50;1.50;;;;;;;11.01;75.65;100236.50;4956505;28;20207;-83
2023/01/06 09:05:10;;;;;;;3.70;2.00;;;;;;;11.02;75.47;100235.56;4957364;28;20210;-83
2023/01/06 09:07:36;;;;;;;1.67;1.30;;;;;;;11.04;75.54;100238.94;4957323;28;20825;-82
2023/01/06 09:10:02;;;;;;;1.83;1.20;;;;;;;11.07;75.56;100244.03;4960808;29;20220;-85
2023/01/06 09:12:27;;;;;;;1.77;1.60;;;;;;;11.10;75.39;100254.41;4959878;29;20203;-82
2023/01/06 09:14:52;;;;;;;3.60;1.90;;;;;;;11.13;75.37;100254.22;4959569;28;20195;-83
2023/01/06 09:17:18;;;;;;;4.53;3.30;;;;;;;11.15;75.25;100252.38;4959042;28;20227;-85
2023/01/06 09:19:43;;;;;;;6.50;4.67;;;;;;;11.18;75.56;100260.09;4960147;28;20632;-82
2023/01/06 09:22:09;;;;;;;3.60;2.60;;;;;;;11.20;75.32;100266.06;4960269;28;20192;-82
2023/01/06 09:24:34;;;;;;;5.60;3.20;;;;;;;11.23;75.19;100267.69;4959788;29;20221;-82
2023/01/06 09:26:59;;;;;;;5.30;3.93;;;;;;;11.24;74.92;100264.16;4960464;29;20244;-84
2023/01/06 09:29:25;;;;;;;5.30;3.90;;;;;;;11.25;75.05;100269.31;4959981;28;20263;-83
2023/01/06 09:31:50;;;;;;;3.90;2.33;;;;;;;11.29;75.03;100270.00;4961300;28;20286;-83
2023/01/06 09:34:15;;;;;;;2.60;2.03;;;;;;;11.31;74.96;100268.09;4960774;28;20222;-83
2023/01/06 09:36:41;;;;;;;3.20;2.70;;;;;;;11.35;74.89;100274.06;4959007;28;20599;-85
2023/01/06 09:39:06;;;;;;;2.13;1.93;;;;;;;11.35;74.81;100272.28;4984194;28;20483;-82
2023/01/06 09:42:19;;;;;;;5.20;2.50;;;;;;;11.38;74.70;100285.25;4649007;28;5001508;-84
2023/01/06 09:45:10;;;;;;;3.40;2.85;;;;;;;11.43;74.70;100290.25;4982504;28;20541;-82
2023/01/06 09:47:43;;;;;;;3.30;2.78;;;;;;;11.47;74.53;100295.25;4980585;28;20265;-85
2023/01/06 09:50:22;;;;;;;4.65;3.85;;;;;;;11.51;74.50;100290.69;4978999;28;20206;-84
2023/01/06 09:52:54;;;;;;;7.53;4.40;;;;;;;11.55;74.42;100297.44;4975771;28;20185;-85
2023/01/06 09:55:39;;;;;;;3.60;3.30;;;;;;;11.58;74.15;100297.28;4977107;28;20476;-84
2023/01/06 09:58:12;;;;;;;3.95;2.83;;;;;;;11.59;74.08;100296.34;4967643;28;20220;-84
2023/01/06 10:00:39;;;;;;;1.92;1.77;;;;;;;11.61;74.06;100293.63;4953825;29;20393;-84
2023/01/06 10:03:11;;;;;;;2.83;1.80;;;;;;;11.66;73.98;100287.16;4967256;28;20628;-84
2023/01/06 10:05:46;;;;;;;1.70;1.60;;;;;;;11.71;73.83;100282.47;4956268;28;20246;-84
2023/01/06 10:08:20;;;;;;;1.63;1.48;;;;;;;11.72;73.76;100289.47;4955060;28;20254;-84
2023/01/06 10:11:00;;;;;;;4.00;2.15;;;;;;;11.75;73.73;100283.16;4964530;28;20244;-85
2023/01/06 10:13:41;;;;;;;5.40;3.50;;;;;;;11.79;73.49;100283.84;4974890;28;20200;-84
2023/01/06 10:16:25;;;;;;;4.20;3.15;;;;;;;11.81;73.32;100276.69;4954746;28;20222;-84
2023/01/06 10:19:07;;;;;;;2.92;2.55;;;;;;;11.88;73.18;100278.94;4953127;28;20274;-84
2023/01/06 10:22:06;;;;;;;3.05;2.15;;;;;;;11.98;72.95;100281.84;4972399;28;20193;-84
2023/01/06 10:24:43;;;;;;;2.90;1.50;;;;;;;12.02;72.82;100278.13;4975546;28;20601;-85
2023/01/06 10:27:34;;;;;;;2.72;1.40;;;;;;;12.06;72.57;100268.25;4970094;28;20222;-84
2023/01/06 10:30:02;;;;;;;1.92;1.48;;;;;;;12.11;72.55;100245.97;4975119;28;20226;-85
2023/01/06 10:32:31;;;;;;;1.58;1.48;;;;;;;12.15;72.41;100251.88;4979376;28;20191;-83
2023/01/06 10:34:58;;;;;;;2.78;1.90;;;;;;;12.24;72.11;100247.88;4980032;28;20187;-83
2023/01/06 10:37:45;;;;;;;2.97;1.35;;;;;;;12.36;71.63;100233.94;4980559;28;20699;-83
2023/01/06 10:40:25;;;;;;;3.08;1.55;;;;;;;12.54;71.29;100224.91;4981953;28;20211;-83
2023/01/06 10:43:02;;;;;;;1.63;1.35;;;;;;;12.77;70.42;100220.84;4979860;28;20671;-84
2023/01/06 10:45:31;;;;;;;3.50;1.63;;;;;;;13.01;69.71;100210.50;4979699;28;20207;-83
2023/01/06 10:47:59;;;;;;;2.28;1.45;;;;;;;13.11;68.97;100208.13;4980304;28;20208;-88
2023/01/06 10:50:25;;;;;;;2.05;1.33;;;;;;;13.16;68.78;100200.78;4980191;28;20181;-84
2023/01/06 10:52:51;;;;;;;1.70;1.50;;;;;;;13.16;68.68;100199.94;4981240;28;20244;-82
2023/01/06 10:55:44;;;;;;;1.50;1.30;;;;;;;13.15;68.43;100198.22;4984107;28;20176;-83
2023/01/06 10:58:54;;;;;;;1.48;1.10;;;;;;;13.13;68.37;100186.94;5001235;28;20444;-83
2023/01/06 11:01:25;;;;;;;3.22;1.40;;;;;;;13.15;68.27;100187.66;4972855;28;20192;-86
2023/01/06 11:04:11;;;;;;;2.08;1.40;;;;;;;13.18;68.17;100183.06;4999330;28;20196;-83
2023/01/06 11:06:57;;;;;;;1.33;1.10;;;;;;;13.17;67.92;100177.88;5002268;28;20291;-84
2023/01/06 11:09:30;;;;;;;2.20;1.55;;;;;;;13.13;68.04;100176.41;5001694;28;20219;-84
2023/01/06 11:11:59;;;;;;;2.90;1.73;;;;;;;13.08;68.07;100176.69;5001991;28;20180;-84
2023/01/06 11:14:30;;;;;;;1.70;1.10;;;;;;;13.02;67.97;100171.81;5002213;28;20188;-84
2023/01/06 11:16:59;;;;;;;2.00;1.25;;;;;;;13.03;68.11;100173.50;5001580;28;20228;-83
2023/01/06 11:19:41;;;;;;;1.42;1.30;;;;;;;13.16;67.72;100168.28;5000431;28;20203;-84
2023/01/06 11:22:26;;;;;;;1.80;1.20;;;;;;;13.32;67.41;100158.44;5002489;28;20209;-83
2023/01/06 11:24:53;;;;;;;1.92;1.33;;;;;;;13.41;67.04;100163.09;5000882;28;20234;-83
2023/01/06 11:27:18;;;;;;;2.38;1.10;;;;;;;13.48;66.93;100164.38;4998221;28;20277;-86
2023/01/06 11:29:44;;;;;;;1.10;0.93;;;;;;;13.61;66.21;100158.28;4996966;28;20641;-85
2023/01/06 11:32:26;;;;;;;1.53;1.23;;;;;;;13.70;65.66;100153.22;4996699;28;20339;-83
2023/01/06 11:34:56;;;;;;;1.30;1.20;;;;;;;13.78;65.43;100139.50;4998282;28;20176;-83
2023/01/06 11:37:32;;;;;;;1.40;1.30;;;;;;;13.83;65.19;100142.69;4998589;28;20206;-85
2023/01/06 11:39:57;;;;;;;1.20;1.08;;;;;;;13.81;65.18;100144.56;5001008;28;20175;-85
2023/01/06 11:42:24;;;;;;;2.43;1.23;;;;;;;13.81;65.20;100134.00;4998862;28;20204;-85
2023/01/06 11:44:49;;;;;;;1.13;1.00;;;;;;;13.81;65.04;100134.00;4999546;28;20211;-84
2023/01/06 11:47:23;;;;;;;2.80;1.60;;;;;;;13.84;64.75;100133.78;4998465;28;20247;-82